sensor_id;sensor_type;location;lat;lon;timestamp;P1;durP1;ratioP1;P2;durP2;ratioP2
9496;SDS011;4786;51.270;4.456;2024-02-26T00:01:41;4.50;;;2.60;;
9496;SDS011;4786;51.270;4.456;2024-02-26T00:04:08;7.13;;;2.90;;
9496;SDS011;4786;51.270;4.456;2024-02-26T00:06:34;4.00;;;2.70;;
9496;SDS011;4786;51.270;4.456;2024-02-26T00:09:01;5.30;;;2.70;;
9496;SDS011;4786;51.270;4.456;2024-02-26T00:11:27;4.80;;;2.90;;
9496;SDS011;4786;51.270;4.456;2024-02-26T00:13:53;3.40;;;2.63;;
9496;SDS011;4786;51.270;4.456;2024-02-26T00:16:20;3.13;;;2.60;;
9496;SDS011;4786;51.270;4.456;2024-02-26T00:18:46;5.33;;;2.87;;
9496;SDS011;4786;51.270;4.456;2024-02-26T00:21:12;3.53;;;2.70;;
9496;SDS011;4786;51.270;4.456;2024-02-26T00:23:38;2.80;;;2.40;;
9496;SDS011;4786;51.270;4.456;2024-02-26T00:26:04;3.43;;;2.30;;
9496;SDS011;4786;51.270;4.456;2024-02-26T00:28:29;3.97;;;2.70;;
9496;SDS011;4786;51.270;4.456;2024-02-26T00:30:55;4.30;;;2.50;;
9496;SDS011;4786;51.270;4.456;2024-02-26T00:33:22;3.43;;;2.40;;
9496;SDS011;4786;51.270;4.456;2024-02-26T00:35:48;2.87;;;2.33;;
9496;SDS011;4786;51.270;4.456;2024-02-26T00:38:14;2.93;;;2.43;;
9496;SDS011;4786;51.270;4.456;2024-02-26T00:40:40;3.47;;;2.40;;
9496;SDS011;4786;51.270;4.456;2024-02-26T00:43:09;4.67;;;2.13;;
9496;SDS011;4786;51.270;4.456;2024-02-26T00:45:35;2.97;;;2.20;;
9496;SDS011;4786;51.270;4.456;2024-02-26T00:48:01;2.17;;;1.90;;
9496;SDS011;4786;51.270;4.456;2024-02-26T00:50:30;2.47;;;2.00;;
9496;SDS011;4786;51.270;4.456;2024-02-26T00:52:56;3.30;;;2.00;;
9496;SDS011;4786;51.270;4.456;2024-02-26T00:55:22;3.13;;;2.10;;
9496;SDS011;4786;51.270;4.456;2024-02-26T00:57:48;3.30;;;2.37;;
9496;SDS011;4786;51.270;4.456;2024-02-26T01:00:15;2.53;;;2.10;;
9496;SDS011;4786;51.270;4.456;2024-02-26T01:02:41;2.40;;;2.20;;
9496;SDS011;4786;51.270;4.456;2024-02-26T01:05:08;3.13;;;2.40;;
9496;SDS011;4786;51.270;4.456;2024-02-26T01:07:36;3.13;;;2.40;;
9496;SDS011;4786;51.270;4.456;2024-02-26T01:10:03;3.37;;;2.20;;
9496;SDS011;4786;51.270;4.456;2024-02-26T01:12:30;3.93;;;2.50;;
9496;SDS011;4786;51.270;4.456;2024-02-26T01:14:57;2.87;;;2.50;;
9496;SDS011;4786;51.270;4.456;2024-02-26T01:17:23;3.37;;;2.60;;
9496;SDS011;4786;51.270;4.456;2024-02-26T01:19:49;3.23;;;2.47;;
9496;SDS011;4786;51.270;4.456;2024-02-26T01:22:14;2.90;;;2.60;;
9496;SDS011;4786;51.270;4.456;2024-02-26T01:24:40;2.67;;;2.47;;
9496;SDS011;4786;51.270;4.456;2024-02-26T01:27:06;3.33;;;2.90;;
9496;SDS011;4786;51.270;4.456;2024-02-26T01:29:34;4.20;;;2.70;;
9496;SDS011;4786;51.270;4.456;2024-02-26T01:32:00;3.23;;;2.90;;
9496;SDS011;4786;51.270;4.456;2024-02-26T01:34:26;3.90;;;3.00;;
9496;SDS011;4786;51.270;4.456;2024-02-26T01:36:52;3.37;;;2.90;;
9496;SDS011;4786;51.270;4.456;2024-02-26T01:39:17;4.90;;;3.50;;
9496;SDS011;4786;51.270;4.456;2024-02-26T01:41:44;7.53;;;3.20;;
9496;SDS011;4786;51.270;4.456;2024-02-26T01:44:11;4.57;;;3.57;;
9496;SDS011;4786;51.270;4.456;2024-02-26T01:46:38;3.50;;;3.20;;
9496;SDS011;4786;51.270;4.456;2024-02-26T01:49:04;3.90;;;3.50;;
9496;SDS011;4786;51.270;4.456;2024-02-26T01:51:31;4.87;;;3.50;;
9496;SDS011;4786;51.270;4.456;2024-02-26T01:53:59;4.83;;;3.50;;
9496;SDS011;4786;51.270;4.456;2024-02-26T01:56:26;4.37;;;3.63;;
9496;SDS011;4786;51.270;4.456;2024-02-26T01:58:56;3.63;;;3.30;;
9496;SDS011;4786;51.270;4.456;2024-02-26T02:01:25;5.60;;;3.70;;
9496;SDS011;4786;51.270;4.456;2024-02-26T02:03:52;4.00;;;3.27;;
9496;SDS011;4786;51.270;4.456;2024-02-26T02:06:20;4.23;;;3.67;;
9496;SDS011;4786;51.270;4.456;2024-02-26T02:08:46;5.00;;;3.40;;
9496;SDS011;4786;51.270;4.456;2024-02-26T02:11:13;4.50;;;3.70;;
9496;SDS011;4786;51.270;4.456;2024-02-26T02:13:39;4.83;;;4.33;;
9496;SDS011;4786;51.270;4.456;2024-02-26T02:16:06;5.80;;;4.07;;
9496;SDS011;4786;51.270;4.456;2024-02-26T02:18:32;5.33;;;4.03;;
9496;SDS011;4786;51.270;4.456;2024-02-26T02:20:59;5.63;;;4.30;;
9496;SDS011;4786;51.270;4.456;2024-02-26T02:23:26;5.63;;;3.90;;
9496;SDS011;4786;51.270;4.456;2024-02-26T02:25:52;5.07;;;4.30;;
9496;SDS011;4786;51.270;4.456;2024-02-26T02:28:20;5.20;;;4.70;;
9496;SDS011;4786;51.270;4.456;2024-02-26T02:30:46;5.90;;;4.40;;
9496;SDS011;4786;51.270;4.456;2024-02-26T02:33:13;5.20;;;4.27;;
9496;SDS011;4786;51.270;4.456;2024-02-26T02:35:40;6.60;;;4.73;;
9496;SDS011;4786;51.270;4.456;2024-02-26T02:38:06;6.47;;;4.80;;
9496;SDS011;4786;51.270;4.456;2024-02-26T02:40:32;6.07;;;5.07;;
9496;SDS011;4786;51.270;4.456;2024-02-26T02:42:58;6.67;;;5.43;;
9496;SDS011;4786;51.270;4.456;2024-02-26T02:45:25;5.27;;;4.77;;
9496;SDS011;4786;51.270;4.456;2024-02-26T02:47:51;7.17;;;5.23;;
9496;SDS011;4786;51.270;4.456;2024-02-26T02:50:17;6.53;;;5.80;;
9496;SDS011;4786;51.270;4.456;2024-02-26T02:52:43;5.77;;;5.17;;
9496;SDS011;4786;51.270;4.456;2024-02-26T02:55:09;7.67;;;5.60;;
9496;SDS011;4786;51.270;4.456;2024-02-26T02:57:35;6.67;;;5.97;;
9496;SDS011;4786;51.270;4.456;2024-02-26T03:00:06;8.17;;;5.30;;
9496;SDS011;4786;51.270;4.456;2024-02-26T03:02:33;6.43;;;5.67;;
9496;SDS011;4786;51.270;4.456;2024-02-26T03:05:01;7.20;;;5.50;;
9496;SDS011;4786;51.270;4.456;2024-02-26T03:07:27;6.70;;;6.03;;
9496;SDS011;4786;51.270;4.456;2024-02-26T03:09:53;6.07;;;5.47;;
9496;SDS011;4786;51.270;4.456;2024-02-26T03:12:19;5.97;;;5.37;;
9496;SDS011;4786;51.270;4.456;2024-02-26T03:14:45;6.77;;;5.77;;
9496;SDS011;4786;51.270;4.456;2024-02-26T03:17:11;7.43;;;5.83;;
9496;SDS011;4786;51.270;4.456;2024-02-26T03:19:36;6.30;;;5.67;;
9496;SDS011;4786;51.270;4.456;2024-02-26T03:22:03;9.03;;;5.57;;
9496;SDS011;4786;51.270;4.456;2024-02-26T03:24:28;7.03;;;5.50;;
9496;SDS011;4786;51.270;4.456;2024-02-26T03:26:54;7.30;;;6.07;;
9496;SDS011;4786;51.270;4.456;2024-02-26T03:29:20;6.87;;;5.50;;
9496;SDS011;4786;51.270;4.456;2024-02-26T03:31:46;7.27;;;5.73;;
9496;SDS011;4786;51.270;4.456;2024-02-26T03:34:12;6.00;;;5.50;;
9496;SDS011;4786;51.270;4.456;2024-02-26T03:36:39;5.60;;;5.10;;
9496;SDS011;4786;51.270;4.456;2024-02-26T03:39:06;6.23;;;5.40;;
9496;SDS011;4786;51.270;4.456;2024-02-26T03:41:35;5.70;;;5.20;;
9496;SDS011;4786;51.270;4.456;2024-02-26T03:44:02;5.93;;;5.43;;
9496;SDS011;4786;51.270;4.456;2024-02-26T03:46:28;5.43;;;4.93;;
9496;SDS011;4786;51.270;4.456;2024-02-26T03:48:54;5.97;;;5.40;;
9496;SDS011;4786;51.270;4.456;2024-02-26T03:51:20;6.83;;;4.83;;
9496;SDS011;4786;51.270;4.456;2024-02-26T03:53:46;5.20;;;4.70;;
9496;SDS011;4786;51.270;4.456;2024-02-26T03:56:11;5.00;;;4.60;;
9496;SDS011;4786;51.270;4.456;2024-02-26T03:58:40;5.13;;;4.63;;
9496;SDS011;4786;51.270;4.456;2024-02-26T04:01:09;5.13;;;4.63;;
9496;SDS011;4786;51.270;4.456;2024-02-26T04:03:35;5.43;;;4.60;;
9496;SDS011;4786;51.270;4.456;2024-02-26T04:06:00;5.67;;;4.43;;
9496;SDS011;4786;51.270;4.456;2024-02-26T04:08:27;4.53;;;4.23;;
9496;SDS011;4786;51.270;4.456;2024-02-26T04:10:53;4.60;;;4.20;;
9496;SDS011;4786;51.270;4.456;2024-02-26T04:13:19;4.80;;;4.40;;
9496;SDS011;4786;51.270;4.456;2024-02-26T04:15:45;4.90;;;4.50;;
9496;SDS011;4786;51.270;4.456;2024-02-26T04:18:12;4.60;;;4.20;;
9496;SDS011;4786;51.270;4.456;2024-02-26T04:20:37;5.13;;;4.63;;
9496;SDS011;4786;51.270;4.456;2024-02-26T04:23:04;4.40;;;4.10;;
9496;SDS011;4786;51.270;4.456;2024-02-26T04:25:30;4.53;;;4.13;;
9496;SDS011;4786;51.270;4.456;2024-02-26T04:27:56;5.43;;;4.57;;
9496;SDS011;4786;51.270;4.456;2024-02-26T04:30:22;4.70;;;4.13;;
9496;SDS011;4786;51.270;4.456;2024-02-26T04:32:48;4.40;;;4.00;;
9496;SDS011;4786;51.270;4.456;2024-02-26T04:35:14;4.87;;;4.43;;
9496;SDS011;4786;51.270;4.456;2024-02-26T04:37:40;4.70;;;4.30;;
9496;SDS011;4786;51.270;4.456;2024-02-26T04:40:06;5.40;;;4.80;;
9496;SDS011;4786;51.270;4.456;2024-02-26T04:42:33;7.57;;;4.80;;
9496;SDS011;4786;51.270;4.456;2024-02-26T04:44:59;5.50;;;4.60;;
9496;SDS011;4786;51.270;4.456;2024-02-26T04:47:25;5.13;;;4.73;;
9496;SDS011;4786;51.270;4.456;2024-02-26T04:49:51;5.47;;;4.97;;
9496;SDS011;4786;51.270;4.456;2024-02-26T04:52:17;5.10;;;4.70;;
9496;SDS011;4786;51.270;4.456;2024-02-26T04:54:44;4.97;;;4.53;;
9496;SDS011;4786;51.270;4.456;2024-02-26T04:57:10;5.37;;;4.87;;
9496;SDS011;4786;51.270;4.456;2024-02-26T04:59:36;4.97;;;4.57;;
9496;SDS011;4786;51.270;4.456;2024-02-26T05:02:02;4.83;;;4.47;;
9496;SDS011;4786;51.270;4.456;2024-02-26T05:04:28;4.83;;;4.40;;
9496;SDS011;4786;51.270;4.456;2024-02-26T05:06:54;4.80;;;4.40;;
9496;SDS011;4786;51.270;4.456;2024-02-26T05:09:21;4.60;;;4.20;;
9496;SDS011;4786;51.270;4.456;2024-02-26T05:11:46;6.37;;;4.70;;
9496;SDS011;4786;51.270;4.456;2024-02-26T05:14:13;5.27;;;4.87;;
9496;SDS011;4786;51.270;4.456;2024-02-26T05:16:39;5.10;;;4.60;;
9496;SDS011;4786;51.270;4.456;2024-02-26T05:19:05;5.23;;;4.70;;
9496;SDS011;4786;51.270;4.456;2024-02-26T05:21:31;5.50;;;4.60;;
9496;SDS011;4786;51.270;4.456;2024-02-26T05:23:57;5.57;;;4.33;;
9496;SDS011;4786;51.270;4.456;2024-02-26T05:26:23;5.07;;;4.40;;
9496;SDS011;4786;51.270;4.456;2024-02-26T05:28:49;4.70;;;4.30;;
9496;SDS011;4786;51.270;4.456;2024-02-26T05:31:16;4.47;;;4.07;;
9496;SDS011;4786;51.270;4.456;2024-02-26T05:33:43;4.80;;;4.30;;
9496;SDS011;4786;51.270;4.456;2024-02-26T05:36:09;5.07;;;4.57;;
9496;SDS011;4786;51.270;4.456;2024-02-26T05:38:34;4.90;;;4.43;;
9496;SDS011;4786;51.270;4.456;2024-02-26T05:41:01;5.17;;;4.30;;
9496;SDS011;4786;51.270;4.456;2024-02-26T05:43:27;6.50;;;4.50;;
9496;SDS011;4786;51.270;4.456;2024-02-26T05:45:53;5.00;;;4.60;;
9496;SDS011;4786;51.270;4.456;2024-02-26T05:48:19;5.17;;;4.67;;
9496;SDS011;4786;51.270;4.456;2024-02-26T05:50:46;5.00;;;4.60;;
9496;SDS011;4786;51.270;4.456;2024-02-26T05:53:12;6.13;;;4.63;;
9496;SDS011;4786;51.270;4.456;2024-02-26T05:55:37;4.57;;;4.17;;
9496;SDS011;4786;51.270;4.456;2024-02-26T05:58:04;5.47;;;4.50;;
9496;SDS011;4786;51.270;4.456;2024-02-26T06:00:30;5.20;;;4.70;;
9496;SDS011;4786;51.270;4.456;2024-02-26T06:02:55;5.57;;;4.60;;
9496;SDS011;4786;51.270;4.456;2024-02-26T06:05:22;5.73;;;4.70;;
9496;SDS011;4786;51.270;4.456;2024-02-26T06:07:47;4.63;;;4.30;;
9496;SDS011;4786;51.270;4.456;2024-02-26T06:10:13;7.57;;;4.70;;
9496;SDS011;4786;51.270;4.456;2024-02-26T06:12:39;6.93;;;4.80;;
9496;SDS011;4786;51.270;4.456;2024-02-26T06:15:05;5.37;;;4.83;;
9496;SDS011;4786;51.270;4.456;2024-02-26T06:17:32;5.73;;;4.60;;
9496;SDS011;4786;51.270;4.456;2024-02-26T06:19:58;5.33;;;4.70;;
9496;SDS011;4786;51.270;4.456;2024-02-26T06:22:24;5.23;;;4.73;;
9496;SDS011;4786;51.270;4.456;2024-02-26T06:24:50;7.33;;;5.13;;
9496;SDS011;4786;51.270;4.456;2024-02-26T06:27:16;7.33;;;4.87;;
9496;SDS011;4786;51.270;4.456;2024-02-26T06:29:42;5.50;;;5.00;;
9496;SDS011;4786;51.270;4.456;2024-02-26T06:32:08;6.10;;;5.50;;
9496;SDS011;4786;51.270;4.456;2024-02-26T06:34:34;5.70;;;5.10;;
9496;SDS011;4786;51.270;4.456;2024-02-26T06:37:00;5.13;;;4.70;;
9496;SDS011;4786;51.270;4.456;2024-02-26T06:39:26;5.23;;;4.77;;
9496;SDS011;4786;51.270;4.456;2024-02-26T06:41:51;5.17;;;4.77;;
9496;SDS011;4786;51.270;4.456;2024-02-26T06:44:24;5.30;;;4.80;;
9496;SDS011;4786;51.270;4.456;2024-02-26T06:46:51;5.50;;;5.00;;
9496;SDS011;4786;51.270;4.456;2024-02-26T06:49:17;5.07;;;4.57;;
9496;SDS011;4786;51.270;4.456;2024-02-26T06:51:43;5.80;;;5.30;;
9496;SDS011;4786;51.270;4.456;2024-02-26T06:54:09;6.30;;;4.97;;
9496;SDS011;4786;51.270;4.456;2024-02-26T06:56:36;5.70;;;5.20;;
9496;SDS011;4786;51.270;4.456;2024-02-26T06:59:02;5.80;;;5.30;;
9496;SDS011;4786;51.270;4.456;2024-02-26T07:01:28;6.17;;;5.57;;
9496;SDS011;4786;51.270;4.456;2024-02-26T07:03:55;5.90;;;5.40;;
9496;SDS011;4786;51.270;4.456;2024-02-26T07:06:21;5.90;;;5.37;;
9496;SDS011;4786;51.270;4.456;2024-02-26T07:08:47;5.50;;;5.00;;
9496;SDS011;4786;51.270;4.456;2024-02-26T07:11:12;7.00;;;5.30;;
9496;SDS011;4786;51.270;4.456;2024-02-26T07:13:39;5.87;;;5.27;;
9496;SDS011;4786;51.270;4.456;2024-02-26T07:16:04;5.93;;;5.33;;
9496;SDS011;4786;51.270;4.456;2024-02-26T07:18:30;6.07;;;5.43;;
9496;SDS011;4786;51.270;4.456;2024-02-26T07:20:56;7.30;;;5.47;;
9496;SDS011;4786;51.270;4.456;2024-02-26T07:23:22;5.73;;;5.27;;
9496;SDS011;4786;51.270;4.456;2024-02-26T07:25:48;5.60;;;5.17;;
9496;SDS011;4786;51.270;4.456;2024-02-26T07:28:17;5.47;;;5.07;;
9496;SDS011;4786;51.270;4.456;2024-02-26T07:30:43;5.90;;;5.40;;
9496;SDS011;4786;51.270;4.456;2024-02-26T07:33:10;5.70;;;4.83;;
9496;SDS011;4786;51.270;4.456;2024-02-26T07:35:35;5.70;;;5.20;;
9496;SDS011;4786;51.270;4.456;2024-02-26T07:38:03;5.77;;;5.10;;
9496;SDS011;4786;51.270;4.456;2024-02-26T07:40:30;5.40;;;4.90;;
9496;SDS011;4786;51.270;4.456;2024-02-26T07:42:56;5.23;;;4.70;;
9496;SDS011;4786;51.270;4.456;2024-02-26T07:45:22;5.30;;;4.90;;
9496;SDS011;4786;51.270;4.456;2024-02-26T07:47:48;5.00;;;4.60;;
9496;SDS011;4786;51.270;4.456;2024-02-26T07:50:14;5.20;;;4.70;;
9496;SDS011;4786;51.270;4.456;2024-02-26T07:52:40;5.40;;;4.90;;
9496;SDS011;4786;51.270;4.456;2024-02-26T07:55:06;5.40;;;4.90;;
9496;SDS011;4786;51.270;4.456;2024-02-26T07:57:33;5.67;;;5.17;;
9496;SDS011;4786;51.270;4.456;2024-02-26T08:00:00;6.93;;;5.03;;
9496;SDS011;4786;51.270;4.456;2024-02-26T08:02:26;5.00;;;4.60;;
9496;SDS011;4786;51.270;4.456;2024-02-26T08:04:53;5.83;;;5.27;;
9496;SDS011;4786;51.270;4.456;2024-02-26T08:07:18;5.53;;;5.03;;
9496;SDS011;4786;51.270;4.456;2024-02-26T08:09:45;5.83;;;5.30;;
9496;SDS011;4786;51.270;4.456;2024-02-26T08:12:11;5.23;;;4.83;;
9496;SDS011;4786;51.270;4.456;2024-02-26T08:14:37;6.57;;;5.83;;
9496;SDS011;4786;51.270;4.456;2024-02-26T08:17:03;5.63;;;5.13;;
9496;SDS011;4786;51.270;4.456;2024-02-26T08:19:29;6.57;;;5.97;;
9496;SDS011;4786;51.270;4.456;2024-02-26T08:21:54;6.30;;;5.80;;
9496;SDS011;4786;51.270;4.456;2024-02-26T08:24:20;6.13;;;5.63;;
9496;SDS011;4786;51.270;4.456;2024-02-26T08:26:47;6.70;;;6.10;;
9496;SDS011;4786;51.270;4.456;2024-02-26T08:29:13;6.67;;;6.07;;
9496;SDS011;4786;51.270;4.456;2024-02-26T08:31:39;6.53;;;5.90;;
9496;SDS011;4786;51.270;4.456;2024-02-26T08:34:05;6.40;;;5.90;;
9496;SDS011;4786;51.270;4.456;2024-02-26T08:36:32;7.30;;;6.60;;
9496;SDS011;4786;51.270;4.456;2024-02-26T08:38:59;7.13;;;6.43;;
9496;SDS011;4786;51.270;4.456;2024-02-26T08:41:25;6.77;;;6.17;;
9496;SDS011;4786;51.270;4.456;2024-02-26T08:43:51;6.63;;;6.03;;
9496;SDS011;4786;51.270;4.456;2024-02-26T08:46:17;6.87;;;6.27;;
9496;SDS011;4786;51.270;4.456;2024-02-26T08:48:44;7.33;;;6.63;;
9496;SDS011;4786;51.270;4.456;2024-02-26T08:51:09;7.37;;;6.67;;
9496;SDS011;4786;51.270;4.456;2024-02-26T08:53:35;7.50;;;6.70;;
9496;SDS011;4786;51.270;4.456;2024-02-26T08:56:02;7.10;;;6.40;;
9496;SDS011;4786;51.270;4.456;2024-02-26T08:58:29;7.03;;;6.43;;
9496;SDS011;4786;51.270;4.456;2024-02-26T09:00:55;7.17;;;6.57;;
9496;SDS011;4786;51.270;4.456;2024-02-26T09:03:21;6.87;;;6.27;;
9496;SDS011;4786;51.270;4.456;2024-02-26T09:05:47;7.43;;;6.73;;
9496;SDS011;4786;51.270;4.456;2024-02-26T09:08:13;7.10;;;6.43;;
9496;SDS011;4786;51.270;4.456;2024-02-26T09:10:39;7.70;;;7.00;;
9496;SDS011;4786;51.270;4.456;2024-02-26T09:13:05;8.90;;;6.90;;
9496;SDS011;4786;51.270;4.456;2024-02-26T09:15:32;7.03;;;6.20;;
9496;SDS011;4786;51.270;4.456;2024-02-26T09:17:58;8.23;;;7.43;;
9496;SDS011;4786;51.270;4.456;2024-02-26T09:20:23;7.70;;;7.00;;
9496;SDS011;4786;51.270;4.456;2024-02-26T09:22:49;7.37;;;6.67;;
9496;SDS011;4786;51.270;4.456;2024-02-26T09:25:19;7.00;;;6.50;;
9496;SDS011;4786;51.270;4.456;2024-02-26T09:27:45;7.30;;;6.60;;
9496;SDS011;4786;51.270;4.456;2024-02-26T09:30:11;6.67;;;6.07;;
9496;SDS011;4786;51.270;4.456;2024-02-26T09:32:39;7.30;;;6.67;;
9496;SDS011;4786;51.270;4.456;2024-02-26T09:35:08;7.00;;;6.30;;
9496;SDS011;4786;51.270;4.456;2024-02-26T09:37:33;7.17;;;6.47;;
9496;SDS011;4786;51.270;4.456;2024-02-26T09:40:01;6.73;;;6.23;;
9496;SDS011;4786;51.270;4.456;2024-02-26T09:42:28;6.87;;;6.17;;
9496;SDS011;4786;51.270;4.456;2024-02-26T09:44:56;7.43;;;6.43;;
9496;SDS011;4786;51.270;4.456;2024-02-26T09:47:28;7.17;;;6.57;;
9496;SDS011;4786;51.270;4.456;2024-02-26T09:49:56;7.40;;;6.80;;
9496;SDS011;4786;51.270;4.456;2024-02-26T09:52:23;8.37;;;7.57;;
9496;SDS011;4786;51.270;4.456;2024-02-26T09:54:50;7.23;;;6.53;;
9496;SDS011;4786;51.270;4.456;2024-02-26T09:57:16;7.30;;;6.60;;
9496;SDS011;4786;51.270;4.456;2024-02-26T09:59:43;8.00;;;7.20;;
9496;SDS011;4786;51.270;4.456;2024-02-26T10:02:13;7.57;;;6.97;;
9496;SDS011;4786;51.270;4.456;2024-02-26T10:04:40;9.30;;;7.93;;
9496;SDS011;4786;51.270;4.456;2024-02-26T10:07:09;9.20;;;8.23;;
9496;SDS011;4786;51.270;4.456;2024-02-26T10:09:36;8.77;;;7.97;;
9496;SDS011;4786;51.270;4.456;2024-02-26T10:12:03;8.70;;;7.90;;
9496;SDS011;4786;51.270;4.456;2024-02-26T10:14:29;9.23;;;8.43;;
9496;SDS011;4786;51.270;4.456;2024-02-26T10:16:55;8.87;;;7.97;;
9496;SDS011;4786;51.270;4.456;2024-02-26T10:19:28;9.03;;;8.23;;
9496;SDS011;4786;51.270;4.456;2024-02-26T10:21:58;10.33;;;9.33;;
9496;SDS011;4786;51.270;4.456;2024-02-26T10:24:25;11.37;;;9.30;;
9496;SDS011;4786;51.270;4.456;2024-02-26T10:26:55;10.57;;;8.63;;
9496;SDS011;4786;51.270;4.456;2024-02-26T10:29:21;9.93;;;8.97;;
9496;SDS011;4786;51.270;4.456;2024-02-26T10:31:48;9.83;;;8.93;;
9496;SDS011;4786;51.270;4.456;2024-02-26T10:34:15;9.30;;;8.40;;
9496;SDS011;4786;51.270;4.456;2024-02-26T10:36:41;9.80;;;8.90;;
9496;SDS011;4786;51.270;4.456;2024-02-26T10:39:08;10.13;;;9.13;;
9496;SDS011;4786;51.270;4.456;2024-02-26T10:41:36;9.70;;;8.80;;
9496;SDS011;4786;51.270;4.456;2024-02-26T10:44:01;10.40;;;9.40;;
9496;SDS011;4786;51.270;4.456;2024-02-26T10:46:28;9.70;;;8.80;;
9496;SDS011;4786;51.270;4.456;2024-02-26T10:48:54;10.57;;;9.57;;
9496;SDS011;4786;51.270;4.456;2024-02-26T10:51:27;10.30;;;9.40;;
9496;SDS011;4786;51.270;4.456;2024-02-26T10:53:55;11.00;;;9.90;;
9496;SDS011;4786;51.270;4.456;2024-02-26T10:56:24;10.60;;;9.60;;
9496;SDS011;4786;51.270;4.456;2024-02-26T10:58:52;10.27;;;9.33;;
9496;SDS011;4786;51.270;4.456;2024-02-26T11:01:18;10.70;;;9.70;;
9496;SDS011;4786;51.270;4.456;2024-02-26T11:03:46;11.47;;;10.37;;
9496;SDS011;4786;51.270;4.456;2024-02-26T11:06:14;11.13;;;10.03;;
9496;SDS011;4786;51.270;4.456;2024-02-26T11:08:40;11.07;;;9.90;;
9496;SDS011;4786;51.270;4.456;2024-02-26T11:11:07;11.80;;;10.70;;
9496;SDS011;4786;51.270;4.456;2024-02-26T11:13:33;10.53;;;9.43;;
9496;SDS011;4786;51.270;4.456;2024-02-26T11:16:04;12.27;;;9.83;;
9496;SDS011;4786;51.270;4.456;2024-02-26T11:18:32;11.03;;;9.93;;
9496;SDS011;4786;51.270;4.456;2024-02-26T11:20:59;8.90;;;8.07;;
9496;SDS011;4786;51.270;4.456;2024-02-26T11:23:26;8.87;;;7.97;;
9496;SDS011;4786;51.270;4.456;2024-02-26T11:25:52;9.17;;;8.27;;
9496;SDS011;4786;51.270;4.456;2024-02-26T11:28:21;9.87;;;8.87;;
9496;SDS011;4786;51.270;4.456;2024-02-26T11:30:48;9.87;;;8.90;;
9496;SDS011;4786;51.270;4.456;2024-02-26T11:33:15;9.97;;;8.97;;
9496;SDS011;4786;51.270;4.456;2024-02-26T11:35:42;12.27;;;9.93;;
9496;SDS011;4786;51.270;4.456;2024-02-26T11:38:09;10.40;;;9.40;;
9496;SDS011;4786;51.270;4.456;2024-02-26T11:40:46;11.87;;;10.60;;
9496;SDS011;4786;51.270;4.456;2024-02-26T11:43:13;11.33;;;9.83;;
9496;SDS011;4786;51.270;4.456;2024-02-26T11:48:12;11.83;;;10.53;;
9496;SDS011;4786;51.270;4.456;2024-02-26T11:50:45;12.03;;;10.73;;
9496;SDS011;4786;51.270;4.456;2024-02-26T11:58:42;11.87;;;10.67;;
9496;SDS011;4786;51.270;4.456;2024-02-26T12:04:02;11.07;;;9.97;;
9496;SDS011;4786;51.270;4.456;2024-02-26T12:06:30;10.67;;;9.57;;
9496;SDS011;4786;51.270;4.456;2024-02-26T12:08:56;11.20;;;10.10;;
9496;SDS011;4786;51.270;4.456;2024-02-26T12:11:22;10.70;;;9.60;;
9496;SDS011;4786;51.270;4.456;2024-02-26T12:13:48;10.83;;;9.73;;
9496;SDS011;4786;51.270;4.456;2024-02-26T12:16:39;10.07;;;9.07;;
9496;SDS011;4786;51.270;4.456;2024-02-26T12:19:04;10.17;;;9.23;;
9496;SDS011;4786;51.270;4.456;2024-02-26T12:21:33;10.13;;;9.23;;
9496;SDS011;4786;51.270;4.456;2024-02-26T12:24:12;9.77;;;8.77;;
9496;SDS011;4786;51.270;4.456;2024-02-26T12:26:39;10.40;;;9.40;;
9496;SDS011;4786;51.270;4.456;2024-02-26T12:29:05;10.53;;;9.53;;
9496;SDS011;4786;51.270;4.456;2024-02-26T12:31:32;10.27;;;9.17;;
9496;SDS011;4786;51.270;4.456;2024-02-26T12:33:59;9.67;;;8.77;;
9496;SDS011;4786;51.270;4.456;2024-02-26T12:36:26;10.37;;;9.37;;
9496;SDS011;4786;51.270;4.456;2024-02-26T12:38:52;10.50;;;9.50;;
9496;SDS011;4786;51.270;4.456;2024-02-26T12:41:18;9.47;;;8.57;;
9496;SDS011;4786;51.270;4.456;2024-02-26T12:43:44;9.80;;;8.80;;
9496;SDS011;4786;51.270;4.456;2024-02-26T12:46:11;9.27;;;8.37;;
9496;SDS011;4786;51.270;4.456;2024-02-26T12:48:37;9.80;;;8.67;;
9496;SDS011;4786;51.270;4.456;2024-02-26T12:51:04;9.37;;;8.50;;
9496;SDS011;4786;51.270;4.456;2024-02-26T12:53:31;9.67;;;8.77;;
9496;SDS011;4786;51.270;4.456;2024-02-26T12:55:57;9.10;;;8.30;;
9496;SDS011;4786;51.270;4.456;2024-02-26T12:58:23;9.40;;;8.40;;
9496;SDS011;4786;51.270;4.456;2024-02-26T13:00:53;9.90;;;8.90;;
9496;SDS011;4786;51.270;4.456;2024-02-26T13:03:19;8.73;;;7.93;;
9496;SDS011;4786;51.270;4.456;2024-02-26T13:05:47;8.83;;;7.93;;
9496;SDS011;4786;51.270;4.456;2024-02-26T13:08:17;9.20;;;8.30;;
9496;SDS011;4786;51.270;4.456;2024-02-26T13:10:45;8.37;;;7.60;;
9496;SDS011;4786;51.270;4.456;2024-02-26T13:13:11;9.60;;;8.73;;
9496;SDS011;4786;51.270;4.456;2024-02-26T13:15:40;8.77;;;7.97;;
9496;SDS011;4786;51.270;4.456;2024-02-26T13:18:10;9.20;;;7.90;;
9496;SDS011;4786;51.270;4.456;2024-02-26T13:20:37;8.57;;;7.57;;
9496;SDS011;4786;51.270;4.456;2024-02-26T13:23:05;8.80;;;8.00;;
9496;SDS011;4786;51.270;4.456;2024-02-26T13:25:33;9.17;;;8.27;;
9496;SDS011;4786;51.270;4.456;2024-02-26T13:30:39;8.87;;;8.07;;
9496;SDS011;4786;51.270;4.456;2024-02-26T13:33:11;8.40;;;7.60;;
9496;SDS011;4786;51.270;4.456;2024-02-26T13:35:37;8.83;;;7.93;;
9496;SDS011;4786;51.270;4.456;2024-02-26T13:38:04;8.23;;;7.53;;
9496;SDS011;4786;51.270;4.456;2024-02-26T13:40:31;7.70;;;7.00;;
9496;SDS011;4786;51.270;4.456;2024-02-26T13:42:57;8.20;;;7.50;;
9496;SDS011;4786;51.270;4.456;2024-02-26T13:45:23;8.17;;;7.47;;
9496;SDS011;4786;51.270;4.456;2024-02-26T13:47:49;8.47;;;7.77;;
9496;SDS011;4786;51.270;4.456;2024-02-26T13:50:15;8.13;;;7.40;;
9496;SDS011;4786;51.270;4.456;2024-02-26T13:52:41;8.27;;;7.57;;
9496;SDS011;4786;51.270;4.456;2024-02-26T13:55:08;8.57;;;7.87;;
9496;SDS011;4786;51.270;4.456;2024-02-26T13:57:33;8.93;;;7.53;;
9496;SDS011;4786;51.270;4.456;2024-02-26T13:59:59;8.67;;;7.97;;
9496;SDS011;4786;51.270;4.456;2024-02-26T14:02:25;9.43;;;8.53;;
9496;SDS011;4786;51.270;4.456;2024-02-26T14:04:51;9.50;;;8.60;;
9496;SDS011;4786;51.270;4.456;2024-02-26T14:07:16;9.67;;;8.77;;
9496;SDS011;4786;51.270;4.456;2024-02-26T14:09:42;9.70;;;8.70;;
9496;SDS011;4786;51.270;4.456;2024-02-26T14:12:09;9.20;;;8.40;;
9496;SDS011;4786;51.270;4.456;2024-02-26T14:14:34;8.97;;;8.07;;
9496;SDS011;4786;51.270;4.456;2024-02-26T14:17:03;8.50;;;7.70;;
9496;SDS011;4786;51.270;4.456;2024-02-26T14:19:29;8.23;;;7.43;;
9496;SDS011;4786;51.270;4.456;2024-02-26T14:21:56;7.53;;;6.93;;
9496;SDS011;4786;51.270;4.456;2024-02-26T14:24:22;7.50;;;6.80;;
9496;SDS011;4786;51.270;4.456;2024-02-26T14:26:47;7.30;;;6.70;;
9496;SDS011;4786;51.270;4.456;2024-02-26T14:29:13;7.43;;;6.83;;
9496;SDS011;4786;51.270;4.456;2024-02-26T14:31:39;7.80;;;7.00;;
9496;SDS011;4786;51.270;4.456;2024-02-26T14:34:04;7.33;;;6.63;;
9496;SDS011;4786;51.270;4.456;2024-02-26T14:36:30;7.73;;;7.03;;
9496;SDS011;4786;51.270;4.456;2024-02-26T14:38:56;7.83;;;7.13;;
9496;SDS011;4786;51.270;4.456;2024-02-26T14:41:21;7.33;;;6.73;;
9496;SDS011;4786;51.270;4.456;2024-02-26T14:43:48;7.27;;;6.57;;
9496;SDS011;4786;51.270;4.456;2024-02-26T14:46:14;7.43;;;6.73;;
9496;SDS011;4786;51.270;4.456;2024-02-26T14:48:40;7.97;;;7.27;;
9496;SDS011;4786;51.270;4.456;2024-02-26T14:51:06;8.33;;;7.33;;
9496;SDS011;4786;51.270;4.456;2024-02-26T14:53:32;9.87;;;7.00;;
9496;SDS011;4786;51.270;4.456;2024-02-26T14:55:58;7.47;;;6.80;;
9496;SDS011;4786;51.270;4.456;2024-02-26T14:58:24;8.70;;;7.80;;
9496;SDS011;4786;51.270;4.456;2024-02-26T15:00:50;8.20;;;7.40;;
9496;SDS011;4786;51.270;4.456;2024-02-26T15:03:16;8.20;;;7.40;;
9496;SDS011;4786;51.270;4.456;2024-02-26T15:05:43;8.67;;;7.77;;
9496;SDS011;4786;51.270;4.456;2024-02-26T15:08:08;8.60;;;7.80;;
9496;SDS011;4786;51.270;4.456;2024-02-26T15:10:35;9.27;;;8.33;;
9496;SDS011;4786;51.270;4.456;2024-02-26T15:13:01;7.87;;;7.03;;
9496;SDS011;4786;51.270;4.456;2024-02-26T15:15:28;8.33;;;7.53;;
9496;SDS011;4786;51.270;4.456;2024-02-26T15:17:54;7.87;;;7.03;;
9496;SDS011;4786;51.270;4.456;2024-02-26T15:20:20;7.90;;;7.10;;
9496;SDS011;4786;51.270;4.456;2024-02-26T15:22:47;7.63;;;6.90;;